Aérodrome :
LOGIN :

S'inscrire | Disclaimer

   EN    FR    IT 

 










Légende :    VFR   VFR Marginal   IFR   IFR Intensif   IFR Très Intensif
Visi : 
Plafond : 
>= 8 km
>= 3000ft
5 à 8 km
1000 à 3000 ft
1500m à 5 km
500 à 1000 ft
800 à 1500m
200 à 500 ft
< 800m
< 200 ft
Symboles :   Orages  Brouillard  Fortes neiges  Fortes précipitations  Vent > 20 kt
SIGMETs :   Divers  Orages  Givrage  Turbulence  Onde Orograph.  Cendres Volcan.






- Altitude de l'aérodrome : 1487 ft
- Code IATA : MUC


EDDM - München Franz Josef Strauss

DERNIER METAR :
  • 110220Z 11003KT 9999 R08L/1400D BCFG NSC M05/M06 Q1020 NOSIG

METARs EXPIRÉS :
  • 110150Z 09003KT 9999 R08L/1300D R08R/0900D NSC M05/M06 Q1020 NOSIG
  • 110120Z 08002KT CAVOK M05/M05 Q1021 NOSIG
  • 110050Z VRB02KT CAVOK M05/M05 Q1022 NOSIG
  • 110020Z 08002KT CAVOK M04/M05 Q1022 NOSIG
  • 102350Z 15002KT CAVOK M04/M05 Q1022 NOSIG

TAF TAF EDDM
Valide du 11 à 00h jusqu'au 12 à 06h UTC


102300Z 1100/1206 14005KT CAVOK
BECMG 1120/1123 24005KT
BECMG 1122/1124 BKN014
TEMPO 1200/1206 2000 SN BKN004



MET'MAP, la Météo Aéronautique d'un coup d'oeil ! - Copyright ORBIFLY Décembre 2007 - Disclaimer

ORBIFLY MET'MAP TEAM :

Programmation & Développement : Alexandra Zaïnal
Sur une idée originale de : Baudouin d'Aumeries
Assistance à la programmation : Marc-Olivier Méhu
Soutien technique & logistique : Manuel Goepfert

Contact : metmap@orbifly.com




SOURCES & CREDITS :

   NOAA